• Join FlightAware (Why Join?)
  • Login
  • US Flag 
06:48AM EDT


 

Airport Tracker/Info


-or-


 

Live Flight TrackerFlight Track Log ✈ ASQ5941 ✈ 10-May-2013 ✈ KORD - KAVP

Flight Track Log - Related Links

Times and Time Zones

All times are in EDT time to prevent confusion due to time zone crossing. See the ASQ5941 flight status page for this flight to view local times or setup timezone preferences in your user account.

Time Position Orientation Groundspeed Altitude Reporting Facility
EDT Latitude Longitude Course Direction KTS MPH feet Rate Location/Type
06:06PM 42.0000 -87.8667 71° East 164 189 2,000  Level Chicago TRACON
06:07PM 42.0167 -87.8000 71° East 215 247 4,000 1,980 Climbing Chicago TRACON
06:08PM 42.0167 -87.7000 90° East 237 273 6,200 1,860 Climbing Chicago TRACON
06:09PM 42.0167 -87.6167 90° East 261 300 7,800 1,800 Climbing Chicago TRACON
06:10PM 42.0500 -87.5000 69° East 289 333 9,800 1,800 Climbing Chicago TRACON
06:11PM 42.0667 -87.4000 77° East 307 353 11,600 1,620 Climbing Chicago TRACON
06:12PM 42.0775 -87.2833 83° East 309 356 13,300 1,440 Climbing Chicago Center
06:13PM 42.0961 -87.1658 78° East 320 368 14,700 1,020 Climbing Chicago Center
06:14PM 42.1139 -87.0392 79° East 344 396 15,500 780 Climbing Chicago Center
06:15PM 42.1217 -86.8711 86° East 370 426 16,400 840 Climbing Chicago Center
06:16PM 42.1264 -86.7228 87° East 390 449 17,300 960 Climbing Chicago Center
06:17PM 42.1306 -86.5653 88° East 410 472 18,400 960 Climbing Chicago Center
06:18PM 42.1353 -86.4108 88° East 411 473 19,300 780 Climbing Chicago Center
06:19PM 42.1403 -86.2531 87° East 420 483 20,100 900 Climbing Chicago Center
06:20PM 42.1436 -86.0928 88° East 427 491 21,200 1,020 Climbing Chicago Center
06:21PM 42.1428 -85.9122 90° East 430 495 22,300 1,020 Climbing Chicago Center
06:22PM 42.1406 -85.7511 91° East 432 497 23,400 1,020 Climbing Chicago Center
06:23PM 42.1400 -85.5889 90° East 435 501 24,500 960 Climbing Chicago Center
06:24PM 42.1378 -85.4272 91° East 436 502 25,500 1,080 Climbing Chicago Center
06:25PM 42.1364 -85.2342 90° East 435 501 26,800 1,140 Climbing Chicago Center
06:26PM 42.1344 -85.0722 91° East 435 501 27,900 1,020 Climbing Chicago Center
06:27PM 42.1317 -84.8842 91° East 425 489 29,100 1,020 Climbing Cleveland Center
06:28PM 42.1308 -84.7331 90° East 417 480 30,100 900 Climbing Cleveland Center
06:29PM 42.1281 -84.5761 91° East 417 480 30,900 900 Climbing Cleveland Center
06:30PM 42.1317 -84.4139 88° East 423 487 32,000 540 Climbing Cleveland Center
06:31PM 42.1219 -84.2647 95° East 423 487 32,000  Level Cleveland Center
06:32PM 42.1211 -84.0911 90° East 442 509 32,000  Level Cleveland Center
06:33PM 42.1183 -83.9033 91° East 472 543 32,000  Level Cleveland Center
06:34PM 42.1150 -83.7239 91° East 479 551 32,100 780 Climbing Cleveland Center
06:35PM 42.1139 -83.5308 90° East 474 545 33,600 1,320 Climbing Cleveland Center
06:36PM 42.1097 -83.3597 92° East 463 533 34,800 660 Climbing Cleveland Center
06:37PM 42.1033 -83.1917 93° East 451 519 35,000 60 Climbing Cleveland Center
06:38PM 42.1008 -83.0150 91° East 462 532 35,000  Level Cleveland Center
06:39PM 42.0964 -82.8358 92° East 467 537 35,000  Level Cleveland Center
06:40PM 42.0933 -82.6622 91° East 467 537 35,000  Level Cleveland Center
06:41PM 42.0858 -82.4914 93° East 467 537 35,000  Level Cleveland Center
06:42PM 42.0803 -82.3178 92° East 462 532 35,000  Level Cleveland Center
06:43PM 42.0786 -82.1414 91° East 462 532 35,000  Level Cleveland Center
06:44PM 42.0722 -81.9789 93° East 467 537 35,000  Level Cleveland Center
06:45PM 42.0664 -81.7803 92° East 474 545 35,000  Level Cleveland Center
06:46PM 42.0617 -81.6011 92° East 479 551 35,000  Level Cleveland Center
06:47PM 42.0528 -81.4219 94° East 479 551 35,000  Level Cleveland Center
06:48PM 42.0456 -81.2431 93° East 479 551 35,000  Level Cleveland Center
06:49PM 42.0381 -81.0669 93° East 479 551 35,000  Level Cleveland Center
06:50PM 42.0219 -80.8906 97° East 474 545 35,000  Level Cleveland Center
06:51PM 42.0100 -80.7283 96° East 479 551 35,000  Level Cleveland Center
06:52PM 41.9975 -80.5525 95° East 485 558 35,000  Level Cleveland Center
06:53PM 41.9847 -80.3736 95° East 480 552 35,000  Level Cleveland Center
06:54PM 41.9678 -80.1950 97° East 480 552 35,000  Level Cleveland Center
06:55PM 41.9522 -80.0136 97° East 480 552 35,000  Level Cleveland Center
06:56PM 41.9389 -79.8406 96° East 480 552 35,000 -180 Level Cleveland Center
06:57PM 41.9186 -79.6456 98° East 480 552 34,700 -540 Descending Cleveland Center
06:58PM 41.9047 -79.4839 97° East 480 552 34,000 -600 Descending Cleveland Center
06:59PM 41.8906 -79.3111 96° East 480 552 33,600 -780 Descending Cleveland Center
07:00PM 41.8736 -79.1303 97° East 485 558 32,500 -1,320 Descending Cleveland Center
07:01PM 41.8589 -78.9494 96° East 485 558 31,000 -1,500 Descending Cleveland Center
07:02PM 41.8372 -78.7717 99° East 485 558 29,500 -1,500 Descending Cleveland Center
07:03PM 41.8239 -78.5964 96° East 479 551 28,000 -1,500 Descending Cleveland Center
07:04PM 41.8042 -78.4242 99° East 474 545 26,500 -1,500 Descending Cleveland Center
07:05PM 41.7861 -78.2494 98° East 474 545 25,000 -1,500 Descending Cleveland Center
07:06PM 41.7736 -78.1111 97° East 475 547 23,900 -1,200 Descending New York Center
07:07PM 41.7569 -77.9422 97° East 463 533 23,000 -480 Descending New York Center
07:08PM 41.7406 -77.7986 99° East 448 516 23,000  Level New York Center
07:09PM 41.7247 -77.6414 98° East 436 502 23,000  Level New York Center
07:10PM 41.7039 -77.4586 99° East 436 502 23,000 -120 Level New York Center
07:11PM 41.6864 -77.2872 98° East 449 517 22,800 -1,320 Descending New York Center
07:12PM 41.6644 -77.1131 100° East 460 529 20,400 -2,520 Descending New York Center
07:13PM 41.6483 -76.9450 97° East 460 529 17,900 -2,460 Descending New York Center
07:14PM 41.6294 -76.7850 99° East 460 529 15,500 -2,100 Descending New York Center
07:15PM 41.6131 -76.6531 99° East 421 484 13,700 -1,860 Descending New York Center
07:16PM 41.5975 -76.5072 98° East 369 425 11,800 -1,620 Descending New York Center
07:17PM 41.5822 -76.3869 100° East 340 391 10,600 -1,020 Descending New York Center
07:18PM 41.5689 -76.2719 99° East 318 366 9,800 -1,080 Descending New York Center
07:19PM 41.5569 -76.1711 99° East 312 359 8,500 -1,380 Descending New York Center
07:20PM 41.5261 -76.0717 112° Southeast 296 341 7,100 -1,380 Descending New York Center
07:21PM 41.5097 -75.9708 102° East 291 335 5,800 -1,320 Descending New York Center
07:22PM 41.4931 -75.8725 103° East 280 322 4,600 -960 Descending New York Center
07:23PM 41.4803 -75.7800 100° East 269 310 4,000 -540 Descending New York Center
07:24PM 41.4689 -75.7044 101° East 237 273 3,600 -600 Descending New York Center
07:25PM 41.4331 -75.6631 139° Southeast 178 205 2,800 -900 Descending New York Center
07:26PM 41.3931 -75.6769 195° South 144 166 1,800 -780 Descending New York Center
07:27PM 41.3586 -75.7047 211° Southwest 125 144 1,300 -540 Descending New York Center